sensor_id;sensor_type;location;lat;lon;timestamp;temperature;humidity
40257;DHT22;25977;45.462;9.210;2023-06-14T00:00:11;22.60;89.00
40257;DHT22;25977;45.462;9.210;2023-06-14T00:02:38;22.60;89.30
40257;DHT22;25977;45.462;9.210;2023-06-14T00:05:07;22.50;89.50
40257;DHT22;25977;45.462;9.210;2023-06-14T00:07:36;22.50;89.80
40257;DHT22;25977;45.462;9.210;2023-06-14T00:10:03;22.40;90.10
40257;DHT22;25977;45.462;9.210;2023-06-14T00:12:30;22.30;90.50
40257;DHT22;25977;45.462;9.210;2023-06-14T00:14:56;22.30;90.60
40257;DHT22;25977;45.462;9.210;2023-06-14T00:17:22;22.30;90.80
40257;DHT22;25977;45.462;9.210;2023-06-14T00:19:49;22.20;90.60
40257;DHT22;25977;45.462;9.210;2023-06-14T00:22:14;22.10;90.90
40257;DHT22;25977;45.462;9.210;2023-06-14T00:24:40;22.10;90.90
40257;DHT22;25977;45.462;9.210;2023-06-14T00:27:06;22.00;90.70
40257;DHT22;25977;45.462;9.210;2023-06-14T00:29:32;22.00;91.00
40257;DHT22;25977;45.462;9.210;2023-06-14T00:31:58;21.90;91.10
40257;DHT22;25977;45.462;9.210;2023-06-14T00:34:25;22.10;91.00
40257;DHT22;25977;45.462;9.210;2023-06-14T00:36:51;21.70;91.20
40257;DHT22;25977;45.462;9.210;2023-06-14T00:39:17;21.60;91.40
40257;DHT22;25977;45.462;9.210;2023-06-14T00:41:42;21.70;91.70
40257;DHT22;25977;45.462;9.210;2023-06-14T00:44:08;21.70;91.90
40257;DHT22;25977;45.462;9.210;2023-06-14T00:46:33;21.70;92.10
40257;DHT22;25977;45.462;9.210;2023-06-14T00:48:59;21.80;92.00
40257;DHT22;25977;45.462;9.210;2023-06-14T00:51:25;21.80;92.20
40257;DHT22;25977;45.462;9.210;2023-06-14T00:53:51;21.90;92.10
40257;DHT22;25977;45.462;9.210;2023-06-14T00:56:17;21.90;91.90
40257;DHT22;25977;45.462;9.210;2023-06-14T00:58:50;21.90;91.80
40257;DHT22;25977;45.462;9.210;2023-06-14T01:01:16;21.80;92.00
40257;DHT22;25977;45.462;9.210;2023-06-14T01:03:42;21.80;92.10
40257;DHT22;25977;45.462;9.210;2023-06-14T01:11:05;21.80;91.30
40257;DHT22;25977;45.462;9.210;2023-06-14T01:13:33;21.70;91.50
40257;DHT22;25977;45.462;9.210;2023-06-14T01:15:59;21.70;91.70
40257;DHT22;25977;45.462;9.210;2023-06-14T01:18:25;21.70;91.90
40257;DHT22;25977;45.462;9.210;2023-06-14T01:20:53;21.50;91.90
40257;DHT22;25977;45.462;9.210;2023-06-14T01:23:24;21.70;91.90
40257;DHT22;25977;45.462;9.210;2023-06-14T01:25:51;21.70;92.00
40257;DHT22;25977;45.462;9.210;2023-06-14T01:28:21;21.50;91.90
40257;DHT22;25977;45.462;9.210;2023-06-14T01:30:47;21.50;92.20
40257;DHT22;25977;45.462;9.210;2023-06-14T01:33:14;21.40;92.00
40257;DHT22;25977;45.462;9.210;2023-06-14T01:35:44;21.30;92.30
40257;DHT22;25977;45.462;9.210;2023-06-14T01:38:10;21.30;92.40
40257;DHT22;25977;45.462;9.210;2023-06-14T01:40:36;21.20;92.50
40257;DHT22;25977;45.462;9.210;2023-06-14T01:43:02;21.00;92.10
40257;DHT22;25977;45.462;9.210;2023-06-14T01:45:28;21.00;92.40
40257;DHT22;25977;45.462;9.210;2023-06-14T01:47:56;20.90;92.40
40257;DHT22;25977;45.462;9.210;2023-06-14T01:50:22;20.20;91.90
40257;DHT22;25977;45.462;9.210;2023-06-14T01:52:47;21.10;92.50
40257;DHT22;25977;45.462;9.210;2023-06-14T01:55:13;21.00;92.20
40257;DHT22;25977;45.462;9.210;2023-06-14T01:57:41;21.00;92.20
40257;DHT22;25977;45.462;9.210;2023-06-14T02:00:07;20.90;92.30
40257;DHT22;25977;45.462;9.210;2023-06-14T02:02:38;20.90;92.20
40257;DHT22;25977;45.462;9.210;2023-06-14T02:05:04;20.90;92.10
40257;DHT22;25977;45.462;9.210;2023-06-14T02:07:30;20.80;92.10
40257;DHT22;25977;45.462;9.210;2023-06-14T02:09:55;21.10;91.90
40257;DHT22;25977;45.462;9.210;2023-06-14T02:12:22;20.80;91.80
40257;DHT22;25977;45.462;9.210;2023-06-14T02:14:47;20.80;91.80
40257;DHT22;25977;45.462;9.210;2023-06-14T02:17:14;20.80;91.80
40257;DHT22;25977;45.462;9.210;2023-06-14T02:19:40;20.70;91.70
40257;DHT22;25977;45.462;9.210;2023-06-14T02:22:06;20.70;91.90
40257;DHT22;25977;45.462;9.210;2023-06-14T02:24:33;20.80;91.90
40257;DHT22;25977;45.462;9.210;2023-06-14T02:26:59;20.60;91.80
40257;DHT22;25977;45.462;9.210;2023-06-14T02:29:25;20.60;91.60
40257;DHT22;25977;45.462;9.210;2023-06-14T02:31:51;20.60;91.70
40257;DHT22;25977;45.462;9.210;2023-06-14T02:34:21;20.70;91.70
40257;DHT22;25977;45.462;9.210;2023-06-14T02:36:47;20.70;91.60
40257;DHT22;25977;45.462;9.210;2023-06-14T02:39:13;20.70;91.20
40257;DHT22;25977;45.462;9.210;2023-06-14T02:41:40;20.70;91.20
40257;DHT22;25977;45.462;9.210;2023-06-14T02:44:05;20.60;91.40
40257;DHT22;25977;45.462;9.210;2023-06-14T02:46:31;20.40;91.60
40257;DHT22;25977;45.462;9.210;2023-06-14T02:48:57;20.40;91.60
40257;DHT22;25977;45.462;9.210;2023-06-14T02:51:22;20.50;91.40
40257;DHT22;25977;45.462;9.210;2023-06-14T02:53:48;20.50;91.40
40257;DHT22;25977;45.462;9.210;2023-06-14T02:56:14;20.50;91.30
40257;DHT22;25977;45.462;9.210;2023-06-14T02:58:42;20.50;91.20
40257;DHT22;25977;45.462;9.210;2023-06-14T03:01:09;20.50;91.50
40257;DHT22;25977;45.462;9.210;2023-06-14T03:03:38;20.40;91.60
40257;DHT22;25977;45.462;9.210;2023-06-14T03:06:03;20.50;91.80
40257;DHT22;25977;45.462;9.210;2023-06-14T03:08:33;20.40;91.90
40257;DHT22;25977;45.462;9.210;2023-06-14T03:11:06;20.40;91.90
40257;DHT22;25977;45.462;9.210;2023-06-14T03:13:34;20.50;92.10
40257;DHT22;25977;45.462;9.210;2023-06-14T03:16:01;20.50;92.00
40257;DHT22;25977;45.462;9.210;2023-06-14T03:18:31;20.40;92.10
40257;DHT22;25977;45.462;9.210;2023-06-14T03:21:01;20.40;92.20
40257;DHT22;25977;45.462;9.210;2023-06-14T03:23:27;20.40;92.30
40257;DHT22;25977;45.462;9.210;2023-06-14T03:25:53;20.40;92.20
40257;DHT22;25977;45.462;9.210;2023-06-14T03:28:19;20.40;92.30
40257;DHT22;25977;45.462;9.210;2023-06-14T03:30:45;20.40;92.30
40257;DHT22;25977;45.462;9.210;2023-06-14T03:33:11;20.40;92.30
40257;DHT22;25977;45.462;9.210;2023-06-14T03:35:39;20.40;92.20
40257;DHT22;25977;45.462;9.210;2023-06-14T03:38:05;20.50;92.20
40257;DHT22;25977;45.462;9.210;2023-06-14T03:40:31;20.40;92.10
40257;DHT22;25977;45.462;9.210;2023-06-14T03:43:01;20.40;92.00
40257;DHT22;25977;45.462;9.210;2023-06-14T03:45:27;20.40;92.10
40257;DHT22;25977;45.462;9.210;2023-06-14T03:47:53;20.30;92.00
40257;DHT22;25977;45.462;9.210;2023-06-14T03:50:20;20.30;92.00
40257;DHT22;25977;45.462;9.210;2023-06-14T03:52:47;20.30;92.10
40257;DHT22;25977;45.462;9.210;2023-06-14T03:55:15;20.30;92.10
40257;DHT22;25977;45.462;9.210;2023-06-14T03:57:41;20.40;92.20
40257;DHT22;25977;45.462;9.210;2023-06-14T04:00:10;20.30;92.00
40257;DHT22;25977;45.462;9.210;2023-06-14T04:02:39;20.30;92.20
40257;DHT22;25977;45.462;9.210;2023-06-14T04:05:05;20.40;92.30
40257;DHT22;25977;45.462;9.210;2023-06-14T04:07:35;20.40;92.20
40257;DHT22;25977;45.462;9.210;2023-06-14T04:10:08;20.40;92.00
40257;DHT22;25977;45.462;9.210;2023-06-14T04:12:33;20.40;92.10
40257;DHT22;25977;45.462;9.210;2023-06-14T04:14:59;20.30;92.10
40257;DHT22;25977;45.462;9.210;2023-06-14T04:17:27;19.80;92.30
40257;DHT22;25977;45.462;9.210;2023-06-14T04:19:53;20.20;92.40
40257;DHT22;25977;45.462;9.210;2023-06-14T04:22:19;20.20;92.50
40257;DHT22;25977;45.462;9.210;2023-06-14T04:24:45;20.20;92.50
40257;DHT22;25977;45.462;9.210;2023-06-14T04:27:11;19.90;92.40
40257;DHT22;25977;45.462;9.210;2023-06-14T04:29:37;20.20;92.50
40257;DHT22;25977;45.462;9.210;2023-06-14T04:32:07;20.30;92.50
40257;DHT22;25977;45.462;9.210;2023-06-14T04:34:37;20.30;92.40
40257;DHT22;25977;45.462;9.210;2023-06-14T04:37:03;20.40;92.40
40257;DHT22;25977;45.462;9.210;2023-06-14T04:39:31;20.30;92.40
40257;DHT22;25977;45.462;9.210;2023-06-14T04:41:59;20.30;92.50
40257;DHT22;25977;45.462;9.210;2023-06-14T04:44:27;20.10;92.50
40257;DHT22;25977;45.462;9.210;2023-06-14T04:46:58;20.00;92.70
40257;DHT22;25977;45.462;9.210;2023-06-14T04:49:24;20.10;92.70
40257;DHT22;25977;45.462;9.210;2023-06-14T04:51:50;20.10;92.70
40257;DHT22;25977;45.462;9.210;2023-06-14T04:54:27;20.10;92.40
40257;DHT22;25977;45.462;9.210;2023-06-14T04:56:53;20.10;92.60
40257;DHT22;25977;45.462;9.210;2023-06-14T04:59:22;20.10;92.60
40257;DHT22;25977;45.462;9.210;2023-06-14T05:01:51;20.10;92.70
40257;DHT22;25977;45.462;9.210;2023-06-14T05:04:18;20.00;92.70
40257;DHT22;25977;45.462;9.210;2023-06-14T05:06:44;20.00;92.90
40257;DHT22;25977;45.462;9.210;2023-06-14T05:09:11;20.10;92.80
40257;DHT22;25977;45.462;9.210;2023-06-14T05:11:37;20.10;92.80
40257;DHT22;25977;45.462;9.210;2023-06-14T05:14:03;20.10;92.80
40257;DHT22;25977;45.462;9.210;2023-06-14T05:16:29;20.10;93.00
40257;DHT22;25977;45.462;9.210;2023-06-14T05:18:55;20.10;92.90
40257;DHT22;25977;45.462;9.210;2023-06-14T05:21:21;20.10;92.70
40257;DHT22;25977;45.462;9.210;2023-06-14T05:23:47;20.10;92.50
40257;DHT22;25977;45.462;9.210;2023-06-14T05:26:12;20.20;92.50
40257;DHT22;25977;45.462;9.210;2023-06-14T05:28:38;20.20;92.40
40257;DHT22;25977;45.462;9.210;2023-06-14T05:31:04;20.20;92.30
40257;DHT22;25977;45.462;9.210;2023-06-14T05:33:29;20.40;92.00
40257;DHT22;25977;45.462;9.210;2023-06-14T05:35:55;20.30;92.10
40257;DHT22;25977;45.462;9.210;2023-06-14T05:38:21;20.30;92.10
40257;DHT22;25977;45.462;9.210;2023-06-14T05:40:46;20.40;91.70
40257;DHT22;25977;45.462;9.210;2023-06-14T05:43:12;20.50;91.90
40257;DHT22;25977;45.462;9.210;2023-06-14T05:45:37;20.50;92.00
40257;DHT22;25977;45.462;9.210;2023-06-14T05:48:03;20.60;92.10
40257;DHT22;25977;45.462;9.210;2023-06-14T05:50:30;20.60;91.80
40257;DHT22;25977;45.462;9.210;2023-06-14T05:52:55;20.70;91.60
40257;DHT22;25977;45.462;9.210;2023-06-14T05:55:21;20.80;91.50
40257;DHT22;25977;45.462;9.210;2023-06-14T05:57:47;20.90;91.10
40257;DHT22;25977;45.462;9.210;2023-06-14T06:00:14;21.00;91.10
40257;DHT22;25977;45.462;9.210;2023-06-14T06:02:41;21.00;91.10
40257;DHT22;25977;45.462;9.210;2023-06-14T06:05:09;21.00;91.00
40257;DHT22;25977;45.462;9.210;2023-06-14T06:07:34;21.00;90.80
40257;DHT22;25977;45.462;9.210;2023-06-14T06:10:00;21.00;90.80
40257;DHT22;25977;45.462;9.210;2023-06-14T06:12:25;21.10;90.70
40257;DHT22;25977;45.462;9.210;2023-06-14T06:14:51;21.00;90.70
40257;DHT22;25977;45.462;9.210;2023-06-14T06:17:19;21.10;90.60
40257;DHT22;25977;45.462;9.210;2023-06-14T06:19:45;21.10;90.60
40257;DHT22;25977;45.462;9.210;2023-06-14T06:22:11;21.10;90.40
40257;DHT22;25977;45.462;9.210;2023-06-14T06:24:36;21.20;90.70
40257;DHT22;25977;45.462;9.210;2023-06-14T06:27:02;21.20;90.60
40257;DHT22;25977;45.462;9.210;2023-06-14T06:29:28;21.20;90.60
40257;DHT22;25977;45.462;9.210;2023-06-14T06:31:53;21.20;90.60
40257;DHT22;25977;45.462;9.210;2023-06-14T06:34:19;21.30;90.70
40257;DHT22;25977;45.462;9.210;2023-06-14T06:36:44;21.30;90.60
40257;DHT22;25977;45.462;9.210;2023-06-14T06:39:10;21.20;90.30
40257;DHT22;25977;45.462;9.210;2023-06-14T06:41:37;21.30;90.40
40257;DHT22;25977;45.462;9.210;2023-06-14T06:44:03;21.40;90.20
40257;DHT22;25977;45.462;9.210;2023-06-14T06:46:28;21.50;90.30
40257;DHT22;25977;45.462;9.210;2023-06-14T06:48:54;21.50;90.00
40257;DHT22;25977;45.462;9.210;2023-06-14T06:51:20;21.60;90.10
40257;DHT22;25977;45.462;9.210;2023-06-14T06:53:51;21.60;90.10
40257;DHT22;25977;45.462;9.210;2023-06-14T06:56:17;21.60;90.40
40257;DHT22;25977;45.462;9.210;2023-06-14T06:58:42;21.60;90.20
40257;DHT22;25977;45.462;9.210;2023-06-14T07:01:08;21.60;90.20
40257;DHT22;25977;45.462;9.210;2023-06-14T07:03:34;21.60;90.20
40257;DHT22;25977;45.462;9.210;2023-06-14T07:06:00;21.70;90.30
40257;DHT22;25977;45.462;9.210;2023-06-14T07:08:26;21.70;90.40
40257;DHT22;25977;45.462;9.210;2023-06-14T07:10:52;21.70;90.60
40257;DHT22;25977;45.462;9.210;2023-06-14T07:13:18;21.60;90.80
40257;DHT22;25977;45.462;9.210;2023-06-14T07:15:44;21.70;90.90
40257;DHT22;25977;45.462;9.210;2023-06-14T07:18:10;21.80;90.60
40257;DHT22;25977;45.462;9.210;2023-06-14T07:20:35;21.90;90.70
40257;DHT22;25977;45.462;9.210;2023-06-14T07:23:03;22.50;90.80
40257;DHT22;25977;45.462;9.210;2023-06-14T07:25:29;22.00;90.50
40257;DHT22;25977;45.462;9.210;2023-06-14T07:27:54;22.10;90.50
40257;DHT22;25977;45.462;9.210;2023-06-14T07:30:20;22.10;90.30
40257;DHT22;25977;45.462;9.210;2023-06-14T07:32:46;22.10;90.30
40257;DHT22;25977;45.462;9.210;2023-06-14T07:35:11;22.10;89.70
40257;DHT22;25977;45.462;9.210;2023-06-14T07:37:37;22.10;89.60
40257;DHT22;25977;45.462;9.210;2023-06-14T07:40:03;22.10;89.50
40257;DHT22;25977;45.462;9.210;2023-06-14T07:42:35;22.10;90.00
40257;DHT22;25977;45.462;9.210;2023-06-14T07:45:03;22.10;89.80
40257;DHT22;25977;45.462;9.210;2023-06-14T07:47:29;22.20;89.30
40257;DHT22;25977;45.462;9.210;2023-06-14T07:49:55;22.20;89.20
40257;DHT22;25977;45.462;9.210;2023-06-14T07:52:20;22.20;89.40
40257;DHT22;25977;45.462;9.210;2023-06-14T07:54:46;22.10;88.90
40257;DHT22;25977;45.462;9.210;2023-06-14T07:57:12;22.10;88.90
40257;DHT22;25977;45.462;9.210;2023-06-14T07:59:37;22.20;89.20
40257;DHT22;25977;45.462;9.210;2023-06-14T08:02:03;22.20;89.40
40257;DHT22;25977;45.462;9.210;2023-06-14T08:04:28;22.20;88.00
40257;DHT22;25977;45.462;9.210;2023-06-14T08:06:54;22.30;88.10
40257;DHT22;25977;45.462;9.210;2023-06-14T08:09:19;22.30;88.80
40257;DHT22;25977;45.462;9.210;2023-06-14T08:11:45;22.30;89.10
40257;DHT22;25977;45.462;9.210;2023-06-14T08:14:11;22.30;88.60
40257;DHT22;25977;45.462;9.210;2023-06-14T08:16:37;22.30;88.40
40257;DHT22;25977;45.462;9.210;2023-06-14T08:19:03;22.40;88.30
40257;DHT22;25977;45.462;9.210;2023-06-14T08:21:28;22.30;88.70
40257;DHT22;25977;45.462;9.210;2023-06-14T08:23:57;22.40;88.60
40257;DHT22;25977;45.462;9.210;2023-06-14T08:26:22;22.50;87.50
40257;DHT22;25977;45.462;9.210;2023-06-14T08:28:48;22.50;87.00
40257;DHT22;25977;45.462;9.210;2023-06-14T08:31:14;22.50;87.20
40257;DHT22;25977;45.462;9.210;2023-06-14T08:33:39;22.60;86.80
40257;DHT22;25977;45.462;9.210;2023-06-14T08:36:08;22.70;85.90
40257;DHT22;25977;45.462;9.210;2023-06-14T08:38:34;22.80;86.10
40257;DHT22;25977;45.462;9.210;2023-06-14T08:40:59;22.80;86.00
40257;DHT22;25977;45.462;9.210;2023-06-14T08:43:26;22.90;85.40
40257;DHT22;25977;45.462;9.210;2023-06-14T08:45:53;22.90;85.20
40257;DHT22;25977;45.462;9.210;2023-06-14T08:48:24;23.00;85.40
40257;DHT22;25977;45.462;9.210;2023-06-14T08:50:53;22.90;85.60
40257;DHT22;25977;45.462;9.210;2023-06-14T08:53:19;23.00;85.70
40257;DHT22;25977;45.462;9.210;2023-06-14T08:55:46;23.00;85.60
40257;DHT22;25977;45.462;9.210;2023-06-14T08:58:13;23.00;84.90
40257;DHT22;25977;45.462;9.210;2023-06-14T09:00:39;23.00;84.70
40257;DHT22;25977;45.462;9.210;2023-06-14T09:03:06;23.20;84.20
40257;DHT22;25977;45.462;9.210;2023-06-14T09:05:38;23.30;84.40
40257;DHT22;25977;45.462;9.210;2023-06-14T09:08:04;23.30;84.40
40257;DHT22;25977;45.462;9.210;2023-06-14T09:10:31;23.40;84.40
40257;DHT22;25977;45.462;9.210;2023-06-14T09:13:00;23.50;84.70
40257;DHT22;25977;45.462;9.210;2023-06-14T09:15:26;23.50;84.40
40257;DHT22;25977;45.462;9.210;2023-06-14T09:17:51;23.50;84.10
40257;DHT22;25977;45.462;9.210;2023-06-14T09:20:18;23.70;84.70
40257;DHT22;25977;45.462;9.210;2023-06-14T09:22:44;23.60;85.10
40257;DHT22;25977;45.462;9.210;2023-06-14T09:25:10;23.70;85.10
40257;DHT22;25977;45.462;9.210;2023-06-14T09:27:35;23.90;85.30
40257;DHT22;25977;45.462;9.210;2023-06-14T09:30:04;23.80;85.20
40257;DHT22;25977;45.462;9.210;2023-06-14T09:32:30;23.90;84.90
40257;DHT22;25977;45.462;9.210;2023-06-14T09:34:56;23.90;85.40
40257;DHT22;25977;45.462;9.210;2023-06-14T09:37:31;24.10;85.10
40257;DHT22;25977;45.462;9.210;2023-06-14T09:39:57;24.10;84.80
40257;DHT22;25977;45.462;9.210;2023-06-14T09:42:23;24.10;84.80
40257;DHT22;25977;45.462;9.210;2023-06-14T09:44:52;24.10;84.70
40257;DHT22;25977;45.462;9.210;2023-06-14T09:47:18;24.20;84.60
40257;DHT22;25977;45.462;9.210;2023-06-14T09:49:44;24.30;84.70
40257;DHT22;25977;45.462;9.210;2023-06-14T09:52:28;24.40;84.50
40257;DHT22;25977;45.462;9.210;2023-06-14T09:54:53;24.40;84.30
40257;DHT22;25977;45.462;9.210;2023-06-14T09:57:23;24.10;84.00
40257;DHT22;25977;45.462;9.210;2023-06-14T09:59:51;23.90;84.90
40257;DHT22;25977;45.462;9.210;2023-06-14T10:02:31;24.10;83.40
40257;DHT22;25977;45.462;9.210;2023-06-14T10:05:06;23.90;82.70
40257;DHT22;25977;45.462;9.210;2023-06-14T10:07:35;23.90;82.30
40257;DHT22;25977;45.462;9.210;2023-06-14T10:10:02;23.90;82.70
40257;DHT22;25977;45.462;9.210;2023-06-14T10:12:27;24.00;83.40
40257;DHT22;25977;45.462;9.210;2023-06-14T10:14:53;24.10;83.20
40257;DHT22;25977;45.462;9.210;2023-06-14T10:19:54;24.30;80.40
40257;DHT22;25977;45.462;9.210;2023-06-14T10:22:22;24.30;80.60
40257;DHT22;25977;45.462;9.210;2023-06-14T10:24:50;24.30;79.50
40257;DHT22;25977;45.462;9.210;2023-06-14T10:27:16;24.30;77.90
40257;DHT22;25977;45.462;9.210;2023-06-14T10:32:23;24.40;78.50
40257;DHT22;25977;45.462;9.210;2023-06-14T10:34:57;24.50;78.50
40257;DHT22;25977;45.462;9.210;2023-06-14T10:37:22;24.50;78.50
40257;DHT22;25977;45.462;9.210;2023-06-14T10:39:49;24.70;79.10
40257;DHT22;25977;45.462;9.210;2023-06-14T10:42:15;24.60;80.30
40257;DHT22;25977;45.462;9.210;2023-06-14T10:44:41;24.60;81.40
40257;DHT22;25977;45.462;9.210;2023-06-14T10:47:11;24.60;81.50
40257;DHT22;25977;45.462;9.210;2023-06-14T10:52:07;24.40;82.00
40257;DHT22;25977;45.462;9.210;2023-06-14T10:57:27;24.50;81.90
40257;DHT22;25977;45.462;9.210;2023-06-14T10:59:53;24.60;81.80
40257;DHT22;25977;45.462;9.210;2023-06-14T11:04:49;24.60;79.50
40257;DHT22;25977;45.462;9.210;2023-06-14T11:09:51;24.70;79.00
40257;DHT22;25977;45.462;9.210;2023-06-14T11:12:23;24.80;79.30
40257;DHT22;25977;45.462;9.210;2023-06-14T11:14:50;24.90;78.20
40257;DHT22;25977;45.462;9.210;2023-06-14T11:17:15;25.00;77.50
40257;DHT22;25977;45.462;9.210;2023-06-14T11:19:41;25.10;77.50
40257;DHT22;25977;45.462;9.210;2023-06-14T11:22:06;25.10;77.10
40257;DHT22;25977;45.462;9.210;2023-06-14T11:24:32;25.10;77.20
40257;DHT22;25977;45.462;9.210;2023-06-14T11:26:58;25.20;76.00
40257;DHT22;25977;45.462;9.210;2023-06-14T11:29:23;25.20;75.40
40257;DHT22;25977;45.462;9.210;2023-06-14T11:31:50;25.20;76.80
40257;DHT22;25977;45.462;9.210;2023-06-14T11:34:16;25.10;77.40
40257;DHT22;25977;45.462;9.210;2023-06-14T11:36:42;25.10;77.50
40257;DHT22;25977;45.462;9.210;2023-06-14T11:39:11;25.20;76.50
40257;DHT22;25977;45.462;9.210;2023-06-14T11:41:38;25.20;75.10
40257;DHT22;25977;45.462;9.210;2023-06-14T11:44:04;25.10;75.10
40257;DHT22;25977;45.462;9.210;2023-06-14T11:46:31;25.10;75.00
40257;DHT22;25977;45.462;9.210;2023-06-14T11:48:56;25.10;75.00
40257;DHT22;25977;45.462;9.210;2023-06-14T11:51:22;25.20;74.10
40257;DHT22;25977;45.462;9.210;2023-06-14T11:53:48;25.20;72.90
40257;DHT22;25977;45.462;9.210;2023-06-14T11:56:13;25.10;71.40
40257;DHT22;25977;45.462;9.210;2023-06-14T11:58:39;25.00;71.70
40257;DHT22;25977;45.462;9.210;2023-06-14T12:01:05;25.10;72.30
40257;DHT22;25977;45.462;9.210;2023-06-14T12:03:31;25.10;71.70
40257;DHT22;25977;45.462;9.210;2023-06-14T12:06:06;25.20;72.60
40257;DHT22;25977;45.462;9.210;2023-06-14T12:08:35;25.10;71.70
40257;DHT22;25977;45.462;9.210;2023-06-14T12:11:14;25.20;72.10
40257;DHT22;25977;45.462;9.210;2023-06-14T12:13:43;25.40;73.40
40257;DHT22;25977;45.462;9.210;2023-06-14T12:16:09;25.30;73.90
40257;DHT22;25977;45.462;9.210;2023-06-14T12:18:36;25.30;74.00
40257;DHT22;25977;45.462;9.210;2023-06-14T12:21:05;25.40;72.90
40257;DHT22;25977;45.462;9.210;2023-06-14T12:23:44;25.40;72.70
40257;DHT22;25977;45.462;9.210;2023-06-14T12:26:17;25.40;71.30
40257;DHT22;25977;45.462;9.210;2023-06-14T12:28:42;25.40;72.90
40257;DHT22;25977;45.462;9.210;2023-06-14T12:31:10;25.40;72.80
40257;DHT22;25977;45.462;9.210;2023-06-14T12:33:36;25.60;72.70
40257;DHT22;25977;45.462;9.210;2023-06-14T12:36:06;25.60;72.60
40257;DHT22;25977;45.462;9.210;2023-06-14T12:38:32;25.50;71.10
40257;DHT22;25977;45.462;9.210;2023-06-14T12:40:58;25.50;70.60
40257;DHT22;25977;45.462;9.210;2023-06-14T12:43:24;25.60;70.20
40257;DHT22;25977;45.462;9.210;2023-06-14T12:45:49;25.70;69.70
40257;DHT22;25977;45.462;9.210;2023-06-14T12:48:15;25.90;69.40
40257;DHT22;25977;45.462;9.210;2023-06-14T12:50:41;25.90;66.70
40257;DHT22;25977;45.462;9.210;2023-06-14T12:53:07;25.90;66.00
40257;DHT22;25977;45.462;9.210;2023-06-14T12:55:32;26.00;66.20
40257;DHT22;25977;45.462;9.210;2023-06-14T12:57:58;26.00;66.60
40257;DHT22;25977;45.462;9.210;2023-06-14T13:00:24;25.80;66.40
40257;DHT22;25977;45.462;9.210;2023-06-14T13:02:52;25.90;67.10
40257;DHT22;25977;45.462;9.210;2023-06-14T13:05:18;26.00;68.50
40257;DHT22;25977;45.462;9.210;2023-06-14T13:07:44;26.10;68.60
40257;DHT22;25977;45.462;9.210;2023-06-14T13:10:10;26.10;69.40
40257;DHT22;25977;45.462;9.210;2023-06-14T13:12:35;26.30;70.30
40257;DHT22;25977;45.462;9.210;2023-06-14T13:15:01;26.20;69.50
40257;DHT22;25977;45.462;9.210;2023-06-14T13:17:27;26.30;69.80
40257;DHT22;25977;45.462;9.210;2023-06-14T13:19:52;26.10;70.20
40257;DHT22;25977;45.462;9.210;2023-06-14T13:22:18;26.00;70.20
40257;DHT22;25977;45.462;9.210;2023-06-14T13:24:43;26.10;70.20
40257;DHT22;25977;45.462;9.210;2023-06-14T13:27:09;26.00;70.70
40257;DHT22;25977;45.462;9.210;2023-06-14T13:29:36;25.90;70.90
40257;DHT22;25977;45.462;9.210;2023-06-14T13:32:02;25.90;71.20
40257;DHT22;25977;45.462;9.210;2023-06-14T13:34:27;26.00;72.90
40257;DHT22;25977;45.462;9.210;2023-06-14T13:36:53;26.10;73.70
40257;DHT22;25977;45.462;9.210;2023-06-14T13:39:19;26.30;73.40
40257;DHT22;25977;45.462;9.210;2023-06-14T13:41:44;26.40;73.00
40257;DHT22;25977;45.462;9.210;2023-06-14T13:44:10;26.60;73.20
40257;DHT22;25977;45.462;9.210;2023-06-14T13:46:40;26.70;72.60
40257;DHT22;25977;45.462;9.210;2023-06-14T13:49:08;26.60;71.90
40257;DHT22;25977;45.462;9.210;2023-06-14T13:51:33;26.60;71.70
40257;DHT22;25977;45.462;9.210;2023-06-14T13:54:00;26.70;70.70
40257;DHT22;25977;45.462;9.210;2023-06-14T13:56:26;26.60;70.60
40257;DHT22;25977;45.462;9.210;2023-06-14T13:58:52;26.50;70.30
40257;DHT22;25977;45.462;9.210;2023-06-14T14:01:18;26.30;70.80
40257;DHT22;25977;45.462;9.210;2023-06-14T14:03:45;26.40;70.20
40257;DHT22;25977;45.462;9.210;2023-06-14T14:06:11;26.40;70.50
40257;DHT22;25977;45.462;9.210;2023-06-14T14:08:37;26.30;70.60
40257;DHT22;25977;45.462;9.210;2023-06-14T14:11:03;26.20;71.60
40257;DHT22;25977;45.462;9.210;2023-06-14T14:13:28;26.20;72.00
40257;DHT22;25977;45.462;9.210;2023-06-14T14:15:54;26.10;71.70
40257;DHT22;25977;45.462;9.210;2023-06-14T14:18:20;25.90;71.80
40257;DHT22;25977;45.462;9.210;2023-06-14T14:20:48;25.80;72.40
40257;DHT22;25977;45.462;9.210;2023-06-14T14:23:14;26.00;72.50
40257;DHT22;25977;45.462;9.210;2023-06-14T14:25:39;26.10;72.60
40257;DHT22;25977;45.462;9.210;2023-06-14T14:28:05;26.20;72.50
40257;DHT22;25977;45.462;9.210;2023-06-14T14:30:30;26.30;72.70
40257;DHT22;25977;45.462;9.210;2023-06-14T14:32:56;26.20;72.80
40257;DHT22;25977;45.462;9.210;2023-06-14T14:35:22;26.10;72.70
40257;DHT22;25977;45.462;9.210;2023-06-14T14:37:49;26.20;72.50
40257;DHT22;25977;45.462;9.210;2023-06-14T14:40:15;26.40;72.50
40257;DHT22;25977;45.462;9.210;2023-06-14T14:42:43;26.20;72.00
40257;DHT22;25977;45.462;9.210;2023-06-14T14:45:09;26.20;72.10
40257;DHT22;25977;45.462;9.210;2023-06-14T14:47:35;26.30;71.80
40257;DHT22;25977;45.462;9.210;2023-06-14T14:50:00;26.20;71.30
40257;DHT22;25977;45.462;9.210;2023-06-14T14:52:26;26.20;71.30
40257;DHT22;25977;45.462;9.210;2023-06-14T14:54:52;26.30;71.80
40257;DHT22;25977;45.462;9.210;2023-06-14T14:57:18;26.30;72.00
40257;DHT22;25977;45.462;9.210;2023-06-14T14:59:44;26.30;72.00
40257;DHT22;25977;45.462;9.210;2023-06-14T15:02:09;26.30;71.90
40257;DHT22;25977;45.462;9.210;2023-06-14T15:04:35;26.20;72.00
40257;DHT22;25977;45.462;9.210;2023-06-14T15:07:01;26.30;72.30
40257;DHT22;25977;45.462;9.210;2023-06-14T15:09:29;26.30;72.80
40257;DHT22;25977;45.462;9.210;2023-06-14T15:12:01;26.30;72.50
40257;DHT22;25977;45.462;9.210;2023-06-14T15:14:28;26.30;72.90
40257;DHT22;25977;45.462;9.210;2023-06-14T15:16:53;26.40;72.90
40257;DHT22;25977;45.462;9.210;2023-06-14T15:19:30;26.50;72.60
40257;DHT22;25977;45.462;9.210;2023-06-14T15:21:57;26.60;72.40
40257;DHT22;25977;45.462;9.210;2023-06-14T15:24:24;26.60;72.10
40257;DHT22;25977;45.462;9.210;2023-06-14T15:26:49;26.40;72.30
40257;DHT22;25977;45.462;9.210;2023-06-14T15:29:15;26.50;71.80
40257;DHT22;25977;45.462;9.210;2023-06-14T15:31:41;26.40;71.30
40257;DHT22;25977;45.462;9.210;2023-06-14T15:34:06;26.40;71.40
40257;DHT22;25977;45.462;9.210;2023-06-14T15:36:32;26.50;72.00
40257;DHT22;25977;45.462;9.210;2023-06-14T15:38:57;26.40;71.10
40257;DHT22;25977;45.462;9.210;2023-06-14T15:41:23;26.30;71.80
40257;DHT22;25977;45.462;9.210;2023-06-14T15:43:48;26.40;71.80
40257;DHT22;25977;45.462;9.210;2023-06-14T15:46:14;26.40;71.20